Time;durP1;ratioP1;P1;durP2;ratioP2;P2;SDS_P1;SDS_P2;PMS_P1;PMS_P2;Temp;Humidity;BMP_temperature;BMP_pressure;BME280_temperature;BME280_humidity;BME280_pressure;Samples;Min_cycle;Max_cycle;Signal;HPM_P1;HPM_P2
2023/10/04 00:00:14;;;;;;;;;;;;;;;15.25;63.26;100348.69;321236;30;3370;-76
2023/10/04 00:00:25;;;;;;;;;;;;;;;15.21;63.70;100342.69;319801;30;1269;-76
2023/10/04 00:00:37;;;;;;;;;;;;;;;15.16;63.63;100343.88;316484;31;1255;-76
2023/10/04 00:00:49;;;;;;;;;;;;;;;15.14;63.91;100340.47;315047;31;1882;-76
2023/10/04 00:00:59;;;;;;;;;;;;;;;15.14;63.78;100343.09;315015;31;1450;-76
2023/10/04 00:01:10;;;;;;;;;;;;;;;15.12;63.92;100334.41;313890;31;1150;-76
2023/10/04 00:01:22;;;;;;;;;;;;;;;15.13;63.88;100339.59;311240;31;2107;-76
2023/10/04 00:01:32;;;;;;;;;;;;;;;15.16;63.76;100339.44;313159;31;2222;-76
2023/10/04 00:01:42;;;;;;;;;;;;;;;15.16;63.87;100338.59;312236;31;3079;-76
2023/10/04 00:01:52;;;;;;;;;;;;;;;15.16;63.49;100344.69;309752;31;739;-76
2023/10/04 00:02:02;;;;;;;;;;;;;;;15.19;63.72;100343.69;308379;31;3314;-76
2023/10/04 00:02:13;;;;;;;;;;;;;;;15.21;63.33;100341.84;306056;31;3451;-76
2023/10/04 00:02:23;;;;;;;;;;;;;;;15.24;63.25;100341.69;307618;32;905;-76
2023/10/04 00:02:34;;;;;;;;;;;;;;;15.22;63.20;100343.56;306342;32;3423;-76
2023/10/04 00:02:45;;;;;;;;;;;;;;;15.23;63.23;100342.63;307629;31;3108;-76
2023/10/04 00:02:55;;;;;;;;;;;;;;;15.26;63.14;100337.22;308581;32;1354;-76
2023/10/04 00:03:05;;;;;;;;;;;;;;;15.25;63.12;100335.50;308607;31;2499;-76
2023/10/04 00:03:16;;;;;;;;;;;;;;;15.23;63.06;100338.22;307200;32;2037;-76
2023/10/04 00:03:27;;;;;;;;;;;;;;;15.22;63.16;100335.66;307549;32;736;-76
2023/10/04 00:03:38;;;;;;;;;;;;;;;15.23;63.12;100340.00;304290;32;1387;-76
2023/10/04 00:03:48;;;;;;;;;;;;;;;15.21;63.43;100334.78;302430;32;3339;-76
2023/10/04 00:03:58;;;;;;;;;;;;;;;15.21;63.59;100337.44;300271;32;4672;-77
2023/10/04 00:04:10;;;;;;;;;;;;;;;15.20;63.20;100332.22;299184;33;960;-77
2023/10/04 00:04:20;;;;;;;;;;;;;;;15.21;63.47;100336.56;299241;32;4650;-76
2023/10/04 00:04:34;;;;;;;;;;;;;;;15.19;63.63;100334.00;295797;32;4890;-76
2023/10/04 00:04:44;;;;;;;;;;;;;;;15.18;63.34;100336.72;297903;32;4647;-76
2023/10/04 00:04:54;;;;;;;;;;;;;;;15.19;63.62;100330.53;303442;32;816;-76
2023/10/04 00:05:05;;;;;;;;;;;;;;;15.18;63.45;100332.31;300849;32;4386;-76
2023/10/04 00:05:16;;;;;;;;;;;;;;;15.19;63.86;100333.16;299995;32;3529;-76
2023/10/04 00:05:26;;;;;;;;;;;;;;;15.20;63.52;100333.09;295583;33;1584;-76
2023/10/04 00:05:37;;;;;;;;;;;;;;;15.20;63.34;100334.88;298139;32;2944;-76
2023/10/04 00:05:48;;;;;;;;;;;;;;;15.21;63.49;100336.56;295505;33;4137;-76
2023/10/04 00:05:59;;;;;;;;;;;;;;;15.22;63.41;100338.28;294722;33;5124;-76
2023/10/04 00:06:09;;;;;;;;;;;;;;;15.23;63.38;100324.16;292450;33;1328;-77
2023/10/04 00:06:19;;;;;;;;;;;;;;;15.21;63.45;100331.31;293299;33;6419;-77
2023/10/04 00:06:31;;;;;;;;;;;;;;;15.20;63.58;100327.81;292101;33;6548;-77
2023/10/04 00:06:42;;;;;;;;;;;;;;;15.21;63.64;100332.16;291959;33;6836;-75
2023/10/04 00:06:52;;;;;;;;;;;;;;;15.22;63.63;100327.72;291266;34;1214;-76
2023/10/04 00:07:06;;;;;;;;;;;;;;;15.22;63.37;100333.88;288441;34;6358;-76
2023/10/04 00:07:17;;;;;;;;;;;;;;;15.20;63.50;100327.81;289825;33;6308;-76
2023/10/04 00:07:29;;;;;;;;;;;;;;;15.19;63.48;100326.09;292959;33;5497;-76
2023/10/04 00:07:39;;;;;;;;;;;;;;;15.19;63.42;100328.72;290229;34;1432;-76
2023/10/04 00:07:51;;;;;;;;;;;;;;;15.17;63.99;100329.72;286635;34;4576;-76
2023/10/04 00:08:01;;;;;;;;;;;;;;;15.15;63.77;100327.22;287253;34;5385;-77
2023/10/04 00:08:11;;;;;;;;;;;;;;;15.17;63.84;100324.47;290328;34;831;-76
2023/10/04 00:08:23;;;;;;;;;;;;;;;15.16;63.86;100325.44;289753;34;6843;-76
2023/10/04 00:08:33;;;;;;;;;;;;;;;15.18;63.67;100326.16;284241;34;9001;-76
2023/10/04 00:08:44;;;;;;;;;;;;;;;15.17;63.88;100325.31;281194;34;10144;-75
2023/10/04 00:08:54;;;;;;;;;;;;;;;15.17;63.80;100327.09;284336;34;3299;-75
2023/10/04 00:10:34;;;;;;;;;;;;;;;15.13;64.35;100322.94;2500521;27;20346;-76
2023/10/04 00:10:44;;;;;;;;;;;;;;;15.11;64.28;100322.16;354577;27;874;-76
2023/10/04 00:10:54;;;;;;;;;;;;;;;15.10;64.52;100323.06;353198;28;1222;-76
2023/10/04 00:11:05;;;;;;;;;;;;;;;15.11;64.28;100319.50;351577;28;1175;-76
2023/10/04 00:11:15;;;;;;;;;;;;;;;15.12;64.21;100326.50;351842;28;1260;-76
2023/10/04 00:11:26;;;;;;;;;;;;;;;15.13;64.20;100320.28;351965;28;822;-75
2023/10/04 00:11:36;;;;;;;;;;;;;;;15.14;64.15;100320.22;350218;28;1521;-76
2023/10/04 00:11:47;;;;;;;;;;;;;;;15.13;64.45;100318.50;350263;28;1467;-76
2023/10/04 00:11:57;;;;;;;;;;;;;;;15.13;64.22;100326.44;347409;28;1400;-76
2023/10/04 00:12:08;;;;;;;;;;;;;;;15.15;64.22;100327.22;347206;28;1024;-76
2023/10/04 00:12:18;;;;;;;;;;;;;;;15.16;63.98;100323.59;346323;28;832;-76
2023/10/04 00:12:28;;;;;;;;;;;;;;;15.19;64.20;100317.34;347491;28;1234;-76
2023/10/04 00:12:39;;;;;;;;;;;;;;;15.19;64.21;100317.34;346334;28;1216;-76
2023/10/04 00:12:49;;;;;;;;;;;;;;;15.21;64.21;100320.75;347842;28;1435;-76
2023/10/04 00:12:59;;;;;;;;;;;;;;;15.21;63.95;100318.97;347321;28;1494;-75
2023/10/04 00:13:11;;;;;;;;;;;;;;;15.24;64.09;100317.97;348956;28;1205;-75
2023/10/04 00:13:21;;;;;;;;;;;;;;;15.24;64.18;100326.72;347482;28;1725;-76
2023/10/04 00:13:35;;;;;;;;;;;;;;;15.24;64.17;100323.25;347595;28;1339;-76
2023/10/04 00:13:46;;;;;;;;;;;;;;;15.24;64.36;100316.19;346153;28;1363;-76
2023/10/04 00:13:57;;;;;;;;;;;;;;;15.23;64.37;100318.91;348258;28;849;-75
2023/10/04 00:14:07;;;;;;;;;;;;;;;15.22;64.19;100320.69;349042;28;1300;-76
2023/10/04 00:14:17;;;;;;;;;;;;;;;15.21;64.35;100318.97;348983;28;761;-76
2023/10/04 00:14:27;;;;;;;;;;;;;;;15.20;64.24;100324.31;348852;28;949;-76
2023/10/04 00:14:38;;;;;;;;;;;;;;;15.18;64.42;100321.75;347709;28;1318;-75
2023/10/04 00:14:49;;;;;;;;;;;;;;;15.17;64.31;100316.56;348528;28;1339;-76
2023/10/04 00:14:59;;;;;;;;;;;;;;;15.13;64.74;100329.06;349178;28;1374;-76
2023/10/04 00:15:09;;;;;;;;;;;;;;;15.13;64.70;100318.50;349983;28;1407;-76
2023/10/04 00:15:20;;;;;;;;;;;;;;;15.10;64.76;100326.56;349500;28;1385;-76
2023/10/04 00:15:31;;;;;;;;;;;;;;;15.09;64.44;100321.38;350416;28;800;-76
2023/10/04 00:15:41;;;;;;;;;;;;;;;15.09;64.82;100316.94;350480;28;788;-75
2023/10/04 00:15:51;;;;;;;;;;;;;;;15.07;64.85;100312.69;348954;28;1399;-75
2023/10/04 00:16:03;;;;;;;;;;;;;;;15.08;65.01;100319.66;348880;28;1225;-75
2023/10/04 00:16:14;;;;;;;;;;;;;;;15.06;64.70;100317.09;344713;28;1375;-75
2023/10/04 00:16:26;;;;;;;;;;;;;;;15.07;64.92;100312.69;344906;28;1539;-76
2023/10/04 00:16:36;;;;;;;;;;;;;;;15.07;64.98;100313.53;344758;28;1353;-75
2023/10/04 00:16:46;;;;;;;;;;;;;;;15.07;64.76;100318.81;344821;28;887;-75
2023/10/04 00:16:59;;;;;;;;;;;;;;;15.08;65.04;100319.66;346066;28;1317;-75
2023/10/04 00:17:09;;;;;;;;;;;;;;;15.04;65.13;100315.47;346244;28;1133;-76
2023/10/04 00:17:20;;;;;;;;;;;;;;;15.05;65.06;100319.81;344914;28;1208;-76
2023/10/04 00:17:31;;;;;;;;;;;;;;;15.04;65.17;100310.19;346038;28;856;-76
2023/10/04 00:17:42;;;;;;;;;;;;;;;15.04;65.18;100313.69;346290;28;773;-76
2023/10/04 00:17:52;;;;;;;;;;;;;;;15.03;65.29;100317.25;346669;28;2998;-76
2023/10/04 00:18:04;;;;;;;;;;;;;;;15.05;65.05;100309.25;343034;28;8596;-75
2023/10/04 00:18:17;;;;;;;;;;;;;;;15.05;65.15;100314.53;342950;28;5547;-75
2023/10/04 00:18:27;;;;;;;;;;;;;;;15.04;65.12;100315.47;340192;28;5428;-75
2023/10/04 00:18:38;;;;;;;;;;;;;;;15.02;65.15;100314.69;342049;28;1372;-75
2023/10/04 00:18:49;;;;;;;;;;;;;;;15.01;65.10;100310.34;340876;29;1265;-76
2023/10/04 00:19:00;;;;;;;;;;;;;;;15.00;65.59;100317.38;339757;28;1245;-75
2023/10/04 00:19:12;;;;;;;;;;;;;;;15.00;65.34;100313.91;338415;28;1452;-75
2023/10/04 00:19:22;;;;;;;;;;;;;;;15.00;65.42;100311.25;337985;29;1919;-76
2023/10/04 00:19:33;;;;;;;;;;;;;;;14.96;65.36;100313.19;342327;28;1043;-76
2023/10/04 00:19:43;;;;;;;;;;;;;;;14.95;65.64;100314.97;342530;28;1304;-75
2023/10/04 00:19:53;;;;;;;;;;;;;;;14.93;65.58;100314.19;342242;28;1251;-75
2023/10/04 00:20:08;;;;;;;;;;;;;;;14.93;65.43;100315.97;343560;28;568;-75
2023/10/04 00:20:19;;;;;;;;;;;;;;;14.93;65.88;100316.81;342350;28;840;-75
2023/10/04 00:20:32;;;;;;;;;;;;;;;14.94;65.66;100313.25;344689;28;1472;-75
2023/10/04 00:20:43;;;;;;;;;;;;;;;14.95;65.44;100314.97;344059;28;1870;-75
2023/10/04 00:20:55;;;;;;;;;;;;;;;14.97;65.88;100312.25;340437;28;1914;-75
2023/10/04 00:21:10;;;;;;;;;;;;;;;14.99;65.49;100310.41;334346;29;1246;-75
2023/10/04 00:21:20;;;;;;;;;;;;;;;15.02;65.49;100309.41;334479;29;873;-75
2023/10/04 00:21:30;;;;;;;;;;;;;;;15.03;65.64;100311.13;331826;29;2137;-75
2023/10/04 00:21:44;;;;;;;;;;;;;;;15.03;65.60;100316.38;331174;29;1654;-75
2023/10/04 00:21:54;;;;;;;;;;;;;;;15.06;65.72;100310.97;333176;29;878;-75
2023/10/04 00:22:04;;;;;;;;;;;;;;;15.07;65.51;100312.69;332931;29;1314;-75
2023/10/04 00:22:18;;;;;;;;;;;;;;;15.07;65.70;100310.91;335741;29;1099;-75
2023/10/04 00:22:28;;;;;;;;;;;;;;;15.07;65.63;100313.53;337404;29;1854;-75
2023/10/04 00:22:40;;;;;;;;;;;;;;;15.04;65.93;100313.69;337847;29;1969;-75
2023/10/04 00:22:50;;;;;;;;;;;;;;;15.06;65.75;100313.59;335572;29;1256;-75
2023/10/04 00:23:04;;;;;;;;;;;;;;;15.05;65.70;100309.25;329980;29;2199;-76
2023/10/04 00:23:14;;;;;;;;;;;;;;;15.05;65.97;100315.38;331971;29;2363;-75
2023/10/04 00:23:24;;;;;;;;;;;;;;;15.04;66.12;100312.81;330016;29;2726;-75
2023/10/04 00:23:34;;;;;;;;;;;;;;;15.02;65.86;100309.41;325705;30;1492;-75
2023/10/04 00:23:45;;;;;;;;;;;;;;;15.01;66.21;100315.59;327413;30;2539;-75
2023/10/04 00:23:58;;;;;;;;;;;;;;;15.01;66.06;100318.25;328845;29;1639;-75
2023/10/04 00:24:10;;;;;;;;;;;;;;;15.04;66.14;100312.81;331244;29;1096;-75
2023/10/04 00:24:20;;;;;;;;;;;;;;;15.02;66.22;100314.69;325578;30;1440;-75
2023/10/04 00:24:31;;;;;;;;;;;;;;;15.03;66.12;100321.66;324178;30;1834;-75
2023/10/04 00:24:41;;;;;;;;;;;;;;;15.01;66.10;100310.34;324749;29;2460;-75
2023/10/04 00:24:51;;;;;;;;;;;;;;;14.98;65.96;100314.81;325206;30;1337;-76
2023/10/04 00:25:03;;;;;;;;;;;;;;;15.00;66.10;100316.53;326043;29;2842;-75
2023/10/04 00:25:16;;;;;;;;;;;;;;;14.97;65.92;100312.25;329166;29;2973;-75
2023/10/04 00:25:28;;;;;;;;;;;;;;;14.93;66.10;100311.56;328153;30;2948;-75
2023/10/04 00:25:38;;;;;;;;;;;;;;;14.95;66.41;100320.25;324833;30;3342;-75
2023/10/04 00:25:49;;;;;;;;;;;;;;;14.97;65.95;100313.13;323448;30;784;-75
2023/10/04 00:25:59;;;;;;;;;;;;;;;14.97;66.20;100318.38;320367;30;3038;-75
2023/10/04 00:26:10;;;;;;;;;;;;;;;14.97;66.35;100307.84;318800;30;2287;-75
2023/10/04 00:26:20;;;;;;;;;;;;;;;15.01;66.24;100318.25;322172;30;856;-75
2023/10/04 00:26:31;;;;;;;;;;;;;;;15.00;66.13;100314.75;322552;30;2057;-75
2023/10/04 00:26:42;;;;;;;;;;;;;;;14.98;66.20;100313.97;321188;30;2505;-75
2023/10/04 00:26:52;;;;;;;;;;;;;;;14.96;66.11;100311.41;322255;30;899;-75
2023/10/04 00:27:02;;;;;;;;;;;;;;;14.96;66.18;100311.41;320677;30;2921;-75
2023/10/04 00:27:12;;;;;;;;;;;;;;;14.96;65.97;100311.41;316243;30;5073;-76
2023/10/04 00:27:23;;;;;;;;;;;;;;;14.93;66.27;100316.81;313200;31;4136;-76
2023/10/04 00:27:33;;;;;;;;;;;;;;;14.90;66.19;100314.34;315112;31;1247;-76
2023/10/04 00:27:46;;;;;;;;;;;;;;;14.89;66.38;100317.03;313576;31;5313;-75
2023/10/04 00:27:56;;;;;;;;;;;;;;;14.88;66.16;100317.97;310991;31;4452;-75
2023/10/04 00:28:07;;;;;;;;;;;;;;;14.86;66.61;100312.75;307428;32;1338;-75
2023/10/04 00:28:17;;;;;;;;;;;;;;;14.85;66.62;100313.69;304071;32;4314;-75
2023/10/04 00:28:29;;;;;;;;;;;;;;;14.85;66.59;100312.84;303947;32;2991;-75
2023/10/04 00:28:39;;;;;;;;;;;;;;;14.85;66.96;100318.09;305345;32;3261;-75
2023/10/04 00:28:49;;;;;;;;;;;;;;;14.83;66.63;100315.53;304317;32;761;-76
2023/10/04 00:28:59;;;;;;;;;;;;;;;14.84;66.81;100311.97;300278;32;3596;-76
2023/10/04 00:29:10;;;;;;;;;;;;;;;14.82;66.89;100321.75;300284;32;5092;-76
2023/10/04 00:29:20;;;;;;;;;;;;;;;14.82;67.01;100311.19;304262;32;1396;-76
2023/10/04 00:29:31;;;;;;;;;;;;;;;14.80;66.77;100313.06;302273;32;5817;-75
2023/10/04 00:29:41;;;;;;;;;;;;;;;14.75;66.85;100315.03;298202;32;6089;-75
2023/10/04 00:29:51;;;;;;;;;;;;;;;14.71;67.16;100313.50;295030;33;1221;-75
2023/10/04 00:30:02;;;;;;;;;;;;;;;14.70;67.40;100313.56;293174;33;5936;-75
2023/10/04 00:30:13;;;;;;;;;;;;;;;14.68;67.44;100311.00;290780;33;6206;-75
2023/10/04 00:30:26;;;;;;;;;;;;;;;14.67;67.54;100311.94;291484;33;6218;-75
2023/10/04 00:30:36;;;;;;;;;;;;;;;14.68;67.36;100310.16;290747;33;1305;-76
2023/10/04 00:30:46;;;;;;;;;;;;;;;14.66;67.80;100310.22;289690;33;4371;-76
2023/10/04 00:30:56;;;;;;;;;;;;;;;14.68;67.42;100310.16;290351;33;5314;-76
2023/10/04 00:31:07;;;;;;;;;;;;;;;14.71;67.61;100312.66;291093;34;1365;-76
2023/10/04 00:31:17;;;;;;;;;;;;;;;14.70;67.30;100311.81;285290;34;6833;-76
2023/10/04 00:31:28;;;;;;;;;;;;;;;14.72;67.52;100307.31;280537;34;7323;-76
2023/10/04 00:31:38;;;;;;;;;;;;;;;14.70;67.54;100314.44;277521;35;9619;-75
2023/10/04 00:31:48;;;;;;;;;;;;;;;14.70;67.60;100308.31;278302;35;1169;-75
2023/10/04 00:31:59;;;;;;;;;;;;;;;14.72;67.75;100312.59;279053;35;8797;-75
2023/10/04 00:32:09;;;;;;;;;;;;;;;14.73;67.74;100311.63;280304;35;8718;-75
2023/10/04 00:32:21;;;;;;;;;;;;;;;14.77;67.51;100310.56;280025;35;1391;-75
2023/10/04 00:34:16;;;;;;;;;;;;;;;14.73;67.46;100319.53;2499258;27;19936;-76
2023/10/04 00:34:27;;;;;;;;;;;;;;;14.71;67.69;100313.50;354646;27;918;-75
2023/10/04 00:34:40;;;;;;;;;;;;;;;14.70;67.73;100310.94;353268;28;843;-76
2023/10/04 00:34:51;;;;;;;;;;;;;;;14.67;67.84;100309.31;350329;28;1426;-76
2023/10/04 00:35:01;;;;;;;;;;;;;;;14.69;67.40;100309.22;350189;28;1433;-75
2023/10/04 00:35:12;;;;;;;;;;;;;;;14.68;67.65;100313.66;350364;28;969;-76
2023/10/04 00:35:23;;;;;;;;;;;;;;;14.70;67.77;100314.44;351842;28;1233;-75
2023/10/04 00:35:33;;;;;;;;;;;;;;;14.70;67.68;100309.16;351761;28;1584;-75
2023/10/04 00:35:43;;;;;;;;;;;;;;;14.72;67.65;100320.50;351834;28;812;-75
2023/10/04 00:35:54;;;;;;;;;;;;;;;14.72;67.38;100315.22;348912;28;1270;-75
2023/10/04 00:36:04;;;;;;;;;;;;;;;14.74;67.46;100315.97;348905;28;1210;-75
2023/10/04 00:36:16;;;;;;;;;;;;;;;14.75;67.92;100316.81;350017;28;2659;-75
2023/10/04 00:36:28;;;;;;;;;;;;;;;14.77;67.54;100312.34;347053;28;4983;-77
2023/10/04 00:36:38;;;;;;;;;;;;;;;14.76;67.31;100311.47;350980;28;5126;-76
2023/10/04 00:36:49;;;;;;;;;;;;;;;14.77;67.63;100315.81;350397;28;1323;-75
2023/10/04 00:36:59;;;;;;;;;;;;;;;14.76;67.47;100314.13;350138;28;5418;-75
2023/10/04 00:37:10;;;;;;;;;;;;;;;14.75;67.48;100307.13;350136;28;1372;-75
2023/10/04 00:37:20;;;;;;;;;;;;;;;14.77;67.61;100313.19;348935;28;1235;-76
2023/10/04 00:37:31;;;;;;;;;;;;;;;14.75;67.66;100312.41;347622;28;784;-75
2023/10/04 00:37:45;;;;;;;;;;;;;;;14.77;67.86;100307.06;344858;28;1427;-75
2023/10/04 00:37:56;;;;;;;;;;;;;;;14.76;67.82;100313.25;344968;28;888;-76
2023/10/04 00:38:07;;;;;;;;;;;;;;;14.70;67.85;100317.06;344718;28;1071;-76
2023/10/04 00:38:19;;;;;;;;;;;;;;;14.69;67.68;100315.34;346364;28;845;-76
2023/10/04 00:38:30;;;;;;;;;;;;;;;14.67;67.82;100309.31;348623;28;1251;-76
2023/10/04 00:38:40;;;;;;;;;;;;;;;14.66;67.91;100312.88;348935;28;1250;-76
2023/10/04 00:38:51;;;;;;;;;;;;;;;14.68;67.80;100311.00;347479;28;1237;-75
2023/10/04 00:39:01;;;;;;;;;;;;;;;14.70;67.88;100313.56;344839;28;1228;-75
2023/10/04 00:39:13;;;;;;;;;;;;;;;14.72;67.79;100312.59;346167;28;1201;-76
2023/10/04 00:39:25;;;;;;;;;;;;;;;14.76;67.65;100314.13;346357;28;820;-76
2023/10/04 00:39:35;;;;;;;;;;;;;;;14.76;67.91;100314.13;344946;28;864;-75
2023/10/04 00:39:45;;;;;;;;;;;;;;;14.77;67.88;100310.56;346458;28;1158;-76
2023/10/04 00:39:56;;;;;;;;;;;;;;;14.75;67.77;100307.13;350249;28;1203;-75
2023/10/04 00:40:12;;;;;;;;;;;;;;;14.78;67.66;100311.41;347054;28;1371;-75
2023/10/04 00:40:31;;;;;;;;;;;;;;;14.79;67.88;100307.84;349792;28;1434;-75
2023/10/04 00:40:43;;;;;;;;;;;;;;;14.79;67.66;100310.47;349260;28;1230;-76
2023/10/04 00:40:53;;;;;;;;;;;;;;;14.78;67.61;100316.69;349006;28;1165;-76
2023/10/04 00:41:04;;;;;;;;;;;;;;;14.77;67.68;100310.56;347549;28;871;-75
2023/10/04 00:41:14;;;;;;;;;;;;;;;14.74;67.86;100305.44;347641;28;1354;-76
2023/10/04 00:41:25;;;;;;;;;;;;;;;14.73;67.89;100311.63;347894;28;1421;-76
2023/10/04 00:41:35;;;;;;;;;;;;;;;14.74;68.18;100310.69;351860;28;1319;-75
2023/10/04 00:41:46;;;;;;;;;;;;;;;14.72;67.87;100309.94;350337;28;855;-75
2023/10/04 00:41:56;;;;;;;;;;;;;;;14.70;67.88;100310.94;350363;28;1153;-75
2023/10/04 00:42:09;;;;;;;;;;;;;;;14.71;68.11;100302.97;349850;28;1228;-75
2023/10/04 00:42:20;;;;;;;;;;;;;;;14.73;68.23;100305.53;346273;28;1219;-75
2023/10/04 00:42:30;;;;;;;;;;;;;;;14.74;68.01;100315.13;348799;28;1254;-75
2023/10/04 00:42:40;;;;;;;;;;;;;;;14.73;67.88;100313.44;348080;28;1213;-75
2023/10/04 00:42:51;;;;;;;;;;;;;;;14.74;67.83;100315.97;347250;28;1484;-75
2023/10/04 00:43:02;;;;;;;;;;;;;;;14.72;68.04;100312.59;344290;28;1484;-75
2023/10/04 00:43:19;;;;;;;;;;;;;;;14.71;68.03;100310.88;345102;28;1975;-76
2023/10/04 00:43:31;;;;;;;;;;;;;;;14.75;68.06;100314.19;345790;28;1404;-76
2023/10/04 00:43:49;;;;;;;;;;;;;;;14.74;68.33;100310.69;346114;28;1296;-76
2023/10/04 00:44:01;;;;;;;;;;;;;;;14.78;67.95;100311.41;339340;28;1383;-76
2023/10/04 00:44:11;;;;;;;;;;;;;;;14.75;68.16;100315.03;342954;28;1545;-76
2023/10/04 00:44:22;;;;;;;;;;;;;;;14.76;68.15;100311.47;344365;28;1926;-76
2023/10/04 00:44:35;;;;;;;;;;;;;;;14.76;67.98;100308.84;342175;28;1204;-76
2023/10/04 00:44:47;;;;;;;;;;;;;;;14.76;68.11;100310.63;336827;29;1210;-76
2023/10/04 00:45:00;;;;;;;;;;;;;;;14.76;68.31;100306.22;340534;28;2108;-76
2023/10/04 00:45:13;;;;;;;;;;;;;;;14.78;68.13;100311.41;336109;29;2094;-76
2023/10/04 00:45:24;;;;;;;;;;;;;;;14.77;68.05;100310.56;335889;29;1572;-76
2023/10/04 00:45:34;;;;;;;;;;;;;;;14.76;67.92;100308.84;336003;29;2862;-75
2023/10/04 00:45:46;;;;;;;;;;;;;;;14.74;68.22;100308.06;334869;29;3171;-75
2023/10/04 00:45:57;;;;;;;;;;;;;;;14.75;68.19;100307.13;337050;29;3160;-76
2023/10/04 00:46:07;;;;;;;;;;;;;;;14.72;67.91;100312.59;335475;29;1517;-75
2023/10/04 00:46:21;;;;;;;;;;;;;;;14.70;68.12;100309.16;335207;29;3593;-76
2023/10/04 00:46:34;;;;;;;;;;;;;;;14.65;68.56;100308.53;329375;29;1264;-76
2023/10/04 00:46:45;;;;;;;;;;;;;;;14.62;68.57;100311.28;328781;29;2272;-76
2023/10/04 00:46:56;;;;;;;;;;;;;;;14.62;68.56;100311.28;330288;29;2192;-76
2023/10/04 00:47:07;;;;;;;;;;;;;;;14.62;68.45;100306.88;328768;30;2589;-76
2023/10/04 00:47:17;;;;;;;;;;;;;;;14.61;68.41;100306.94;325710;30;1241;-76
2023/10/04 00:47:27;;;;;;;;;;;;;;;14.61;68.78;100320.97;325904;30;3214;-76
2023/10/04 00:47:38;;;;;;;;;;;;;;;14.64;68.30;100309.44;324534;30;1902;-76
2023/10/04 00:47:51;;;;;;;;;;;;;;;14.66;68.32;100312.88;325777;30;852;-76
2023/10/04 00:48:04;;;;;;;;;;;;;;;14.69;68.46;100306.59;324544;30;804;-76
2023/10/04 00:48:22;;;;;;;;;;;;;;;14.72;68.24;100312.59;322746;30;1792;-76
2023/10/04 00:48:34;;;;;;;;;;;;;;;14.73;68.28;100314.25;319496;30;1370;-76
2023/10/04 00:48:45;;;;;;;;;;;;;;;14.73;68.24;100310.81;319140;30;2650;-76
2023/10/04 00:48:56;;;;;;;;;;;;;;;14.73;68.13;100309.00;314436;31;2973;-76
2023/10/04 00:49:06;;;;;;;;;;;;;;;14.75;68.06;100315.03;311235;31;3483;-76
2023/10/04 00:49:17;;;;;;;;;;;;;;;14.75;68.23;100311.56;315317;31;1232;-76
2023/10/04 00:49:28;;;;;;;;;;;;;;;14.74;68.07;100310.69;313667;31;3166;-76
2023/10/04 00:49:45;;;;;;;;;;;;;;;14.75;68.15;100306.28;312274;31;3558;-76
2023/10/04 00:49:55;;;;;;;;;;;;;;;14.73;68.36;100313.44;312070;31;2637;-76
2023/10/04 00:50:14;;;;;;;;;;;;;;;14.74;67.97;100309.84;311270;31;2178;-76
2023/10/04 00:50:31;;;;;;;;;;;;;;;14.71;68.20;100313.50;309315;31;2853;-76
2023/10/04 00:50:41;;;;;;;;;;;;;;;14.71;68.05;100308.25;307306;31;3028;-76
2023/10/04 00:50:52;;;;;;;;;;;;;;;14.72;68.11;100304.69;303415;32;3962;-76
2023/10/04 00:51:02;;;;;;;;;;;;;;;14.70;68.27;100309.16;305292;32;1422;-76
2023/10/04 00:51:13;;;;;;;;;;;;;;;14.68;68.60;100308.38;306600;32;4570;-76
2023/10/04 00:51:26;;;;;;;;;;;;;;;14.66;68.35;100304.09;308172;31;5064;-76
2023/10/04 00:51:36;;;;;;;;;;;;;;;14.65;68.74;100311.16;306862;31;4326;-76
2023/10/04 00:51:47;;;;;;;;;;;;;;;14.66;68.47;100307.59;305222;32;1237;-76
2023/10/04 00:51:58;;;;;;;;;;;;;;;14.66;68.55;100310.22;306938;32;5043;-76
2023/10/04 00:52:08;;;;;;;;;;;;;;;14.67;68.67;100305.81;305599;32;3677;-76
2023/10/04 00:52:19;;;;;;;;;;;;;;;14.64;68.46;100302.41;305486;32;1314;-75
2023/10/04 00:52:29;;;;;;;;;;;;;;;14.69;68.60;100312.72;304858;32;3378;-76
2023/10/04 00:52:39;;;;;;;;;;;;;;;14.69;68.35;100304.81;303072;32;4605;-75
2023/10/04 00:52:52;;;;;;;;;;;;;;;14.71;68.21;100310.00;304355;32;888;-76
2023/10/04 00:53:02;;;;;;;;;;;;;;;14.70;68.57;100306.53;304876;32;1928;-76
2023/10/04 00:53:26;;;;;;;;;;;;;;;14.68;68.65;100311.00;299870;32;5890;-76
2023/10/04 00:53:36;;;;;;;;;;;;;;;14.70;68.63;100303.03;299375;32;6927;-76
2023/10/04 00:53:47;;;;;;;;;;;;;;;14.70;68.37;100305.69;301057;32;1530;-76
2023/10/04 00:53:57;;;;;;;;;;;;;;;14.66;68.49;100304.09;299727;32;5915;-76
2023/10/04 00:54:10;;;;;;;;;;;;;;;14.66;68.78;100307.59;300289;32;6810;-76
2023/10/04 00:54:20;;;;;;;;;;;;;;;14.65;68.58;100311.16;299143;33;1390;-76
2023/10/04 00:54:31;;;;;;;;;;;;;;;14.66;68.47;100310.22;294950;33;6007;-76
2023/10/04 00:54:41;;;;;;;;;;;;;;;14.63;68.66;100300.69;296912;32;4439;-76
2023/10/04 00:54:52;;;;;;;;;;;;;;;14.64;68.57;100301.53;295724;33;5919;-76
2023/10/04 00:55:05;;;;;;;;;;;;;;;14.63;68.51;100307.72;292875;33;4846;-76
2023/10/04 00:55:17;;;;;;;;;;;;;;;14.63;68.83;100308.59;290426;34;3244;-76
2023/10/04 00:55:29;;;;;;;;;;;;;;;14.66;68.58;100304.97;287973;34;8218;-76
2023/10/04 00:57:13;;;;;;;;;;;;;;;14.71;68.43;100304.75;2500821;27;19937;-76
2023/10/04 00:57:23;;;;;;;;;;;;;;;14.71;68.47;100302.13;353220;27;1316;-76
2023/10/04 00:57:35;;;;;;;;;;;;;;;14.71;68.44;100305.59;350461;28;1070;-76
2023/10/04 00:57:48;;;;;;;;;;;;;;;14.72;68.08;100307.31;349137;28;1289;-76
2023/10/04 00:57:58;;;;;;;;;;;;;;;14.72;68.46;100307.31;350378;28;1254;-76
2023/10/04 00:58:09;;;;;;;;;;;;;;;14.74;68.42;100300.16;350492;28;803;-76
2023/10/04 00:58:19;;;;;;;;;;;;;;;14.73;68.13;100301.09;348738;28;1364;-75
2023/10/04 00:58:30;;;;;;;;;;;;;;;14.74;68.46;100302.78;348479;28;1344;-75
2023/10/04 00:58:40;;;;;;;;;;;;;;;14.74;68.10;100308.06;348913;28;1472;-76
2023/10/04 00:58:52;;;;;;;;;;;;;;;14.71;68.22;100302.97;349530;28;1326;-76
2023/10/04 00:59:03;;;;;;;;;;;;;;;14.66;68.18;100304.09;347599;28;955;-76
2023/10/04 00:59:14;;;;;;;;;;;;;;;14.62;68.18;100300.75;350408;28;1578;-76
2023/10/04 00:59:25;;;;;;;;;;;;;;;14.59;68.49;100300.91;348889;28;1372;-76
2023/10/04 00:59:35;;;;;;;;;;;;;;;14.59;68.31;100300.91;351699;28;1204;-76
2023/10/04 00:59:46;;;;;;;;;;;;;;;14.59;68.34;100295.63;350327;28;1463;-76
2023/10/04 00:59:57;;;;;;;;;;;;;;;14.60;68.34;100302.59;350224;28;1206;-75
2023/10/04 01:00:09;;;;;;;;;;;;;;;14.54;68.59;100305.53;349138;28;1356;-76
2023/10/04 01:00:20;;;;;;;;;;;;;;;14.52;68.50;100300.31;350421;28;979;-75
2023/10/04 01:00:30;;;;;;;;;;;;;;;14.54;68.61;100308.16;351835;28;827;-75
2023/10/04 01:00:41;;;;;;;;;;;;;;;14.52;68.79;100300.31;351419;28;1292;-76
2023/10/04 01:00:52;;;;;;;;;;;;;;;14.53;68.66;100301.19;351779;28;864;-75
2023/10/04 01:01:04;;;;;;;;;;;;;;;14.54;68.82;100303.75;348732;28;945;-76
2023/10/04 01:01:14;;;;;;;;;;;;;;;14.52;68.66;100296.84;347683;28;1290;-76
2023/10/04 01:01:24;;;;;;;;;;;;;;;14.51;68.50;100303.88;349540;28;1295;-75
2023/10/04 01:01:35;;;;;;;;;;;;;;;14.50;68.64;100298.69;348822;28;1164;-75
2023/10/04 01:01:45;;;;;;;;;;;;;;;14.47;68.59;100298.81;350205;28;1227;-76
2023/10/04 01:01:56;;;;;;;;;;;;;;;14.47;68.69;100301.44;346482;28;1489;-76
2023/10/04 01:02:06;;;;;;;;;;;;;;;14.45;68.77;100300.66;347580;28;1178;-76
2023/10/04 01:02:16;;;;;;;;;;;;;;;14.45;68.78;100303.31;347704;28;840;-76
2023/10/04 01:02:28;;;;;;;;;;;;;;;14.45;68.84;100300.66;346176;28;1314;-75
2023/10/04 01:02:39;;;;;;;;;;;;;;;14.44;68.94;100302.44;345433;28;1337;-76
2023/10/04 01:02:49;;;;;;;;;;;;;;;14.45;68.64;100300.66;344469;28;1272;-75
2023/10/04 01:02:59;;;;;;;;;;;;;;;14.47;68.68;100301.44;343389;28;1258;-76
2023/10/04 01:03:10;;;;;;;;;;;;;;;14.47;68.85;100302.31;345718;28;1140;-76
2023/10/04 01:03:24;;;;;;;;;;;;;;;14.46;68.75;100299.75;344649;28;1196;-76
2023/10/04 01:03:37;;;;;;;;;;;;;;;14.43;68.58;100300.75;343340;28;1577;-76
2023/10/04 01:03:48;;;;;;;;;;;;;;;14.44;68.80;100301.59;344622;28;1507;-76